createdAt,value
2019-04-27T00:01:15.747Z,15.08
2019-04-27T00:03:48.838Z,15.09
2019-04-27T00:06:23.703Z,15.14
2019-04-27T00:08:56.653Z,15.20
2019-04-27T00:11:33.189Z,15.17
2019-04-27T00:14:04.464Z,15.12
2019-04-27T00:16:53.597Z,15.06
2019-04-27T00:19:27.411Z,15.08
2019-04-27T00:22:09.790Z,15.03
2019-04-27T00:24:41.301Z,14.93
2019-04-27T00:27:13.420Z,14.78
2019-04-27T00:29:44.957Z,14.64
2019-04-27T00:32:16.666Z,14.51
2019-04-27T00:34:48.318Z,14.45
2019-04-27T00:37:36.905Z,14.44
2019-04-27T00:40:10.063Z,14.47
2019-04-27T00:42:41.724Z,14.41
2019-04-27T00:45:13.571Z,14.32
2019-04-27T00:47:56.444Z,14.33
2019-04-27T00:50:18.845Z,14.35
2019-04-27T00:52:50.353Z,14.40
2019-04-27T00:55:23.435Z,14.44
2019-04-27T00:58:13.162Z,14.33
2019-04-27T01:00:53.979Z,14.25
2019-04-27T01:03:43.120Z,14.07
2019-04-27T01:06:14.937Z,13.88
2019-04-27T01:08:46.192Z,13.65
2019-04-27T01:11:17.442Z,13.48
2019-04-27T01:13:48.690Z,13.40
2019-04-27T01:16:23.723Z,13.30
2019-04-27T01:18:53.076Z,13.22
2019-04-27T01:21:24.572Z,13.15
2019-04-27T01:23:56.843Z,13.18
2019-04-27T01:26:32.176Z,13.19
2019-04-27T01:29:14.588Z,13.13
2019-04-27T01:31:48.681Z,13.04
2019-04-27T01:34:20.054Z,12.95
2019-04-27T01:36:51.738Z,12.85
2019-04-27T01:39:23.469Z,12.75
2019-04-27T01:41:55.015Z,12.67
2019-04-27T01:44:26.260Z,12.61
2019-04-27T01:46:57.507Z,12.54
2019-04-27T01:49:29.627Z,12.47
2019-04-27T01:52:01.849Z,12.43
2019-04-27T01:54:33.528Z,12.44
2019-04-27T01:57:05.586Z,12.40
2019-04-27T01:59:38.618Z,12.38
2019-04-27T02:02:29.184Z,12.40
2019-04-27T02:05:11.609Z,12.41
2019-04-27T02:07:44.646Z,12.46
2019-04-27T02:10:15.904Z,12.53
2019-04-27T02:12:48.686Z,12.60
2019-04-27T02:15:20.038Z,12.59
2019-04-27T02:17:51.671Z,12.58
2019-04-27T02:20:22.910Z,12.57
2019-04-27T02:22:54.479Z,12.57
2019-04-27T02:25:26.119Z,12.53
2019-04-27T02:27:59.411Z,12.43
2019-04-27T02:30:32.606Z,12.31
2019-04-27T02:33:24.232Z,12.13
2019-04-27T02:35:55.780Z,11.98
2019-04-27T02:38:27.333Z,11.85
2019-04-27T02:40:59.999Z,11.76
2019-04-27T02:43:32.872Z,11.74
2019-04-27T02:46:04.551Z,11.76
2019-04-27T02:48:51.986Z,11.76
2019-04-27T02:51:13.533Z,11.74
2019-04-27T02:54:00.154Z,11.73
2019-04-27T02:56:31.354Z,11.74
2019-04-27T02:59:02.839Z,11.77
2019-04-27T03:01:35.986Z,11.79
2019-04-27T03:04:07.197Z,11.82
2019-04-27T03:06:39.772Z,11.85
2019-04-27T03:09:11.126Z,11.87
2019-04-27T03:11:42.902Z,11.86
2019-04-27T03:14:36.404Z,11.78
2019-04-27T03:17:19.900Z,11.83
2019-04-27T03:19:52.625Z,11.83
2019-04-27T03:22:25.886Z,11.86
2019-04-27T03:25:00.093Z,11.94
2019-04-27T03:27:33.184Z,12.02
2019-04-27T03:30:06.727Z,12.11
2019-04-27T03:32:42.528Z,12.15
2019-04-27T03:35:12.916Z,12.17
2019-04-27T03:37:44.520Z,12.25
2019-04-27T03:40:15.619Z,12.36
2019-04-27T03:42:50.247Z,12.48
2019-04-27T03:45:21.759Z,12.60
2019-04-27T03:47:53.400Z,12.69
2019-04-27T03:50:26.475Z,12.79
2019-04-27T03:53:10.302Z,12.86
2019-04-27T03:56:00.100Z,12.97
2019-04-27T03:58:39.790Z,13.09
2019-04-27T04:01:11.081Z,13.22
2019-04-27T04:03:44.069Z,13.34
2019-04-27T04:06:15.825Z,13.48
2019-04-27T04:08:49.875Z,13.58
2019-04-27T04:11:39.549Z,13.72
2019-04-27T04:14:20.237Z,13.85
2019-04-27T04:16:53.143Z,14.00
2019-04-27T04:19:24.716Z,14.16
2019-04-27T04:21:55.967Z,14.31
2019-04-27T04:24:29.368Z,14.41
2019-04-27T04:27:00.197Z,14.54
2019-04-27T04:29:31.609Z,14.68
2019-04-27T04:32:03.257Z,14.81
2019-04-27T04:34:34.857Z,14.93
2019-04-27T04:37:06.405Z,15.07
2019-04-27T04:39:40.233Z,15.22
2019-04-27T04:42:30.021Z,15.34
2019-04-27T04:45:06.046Z,15.46
2019-04-27T04:47:45.080Z,15.71
2019-04-27T04:50:16.628Z,15.71
2019-04-27T04:52:50.000Z,15.89
2019-04-27T04:55:21.273Z,16.02
2019-04-27T04:57:52.455Z,16.26
2019-04-27T05:00:24.988Z,16.26
2019-04-27T05:02:56.343Z,16.36
2019-04-27T05:05:29.336Z,16.51
2019-04-27T05:08:00.885Z,16.63
2019-04-27T05:10:32.424Z,16.76
2019-04-27T05:13:03.870Z,16.85
2019-04-27T05:15:35.018Z,16.94
2019-04-27T05:18:06.470Z,17.08
2019-04-27T05:20:39.813Z,17.19
2019-04-27T05:23:11.209Z,17.30
2019-04-27T05:25:42.400Z,17.41
2019-04-27T05:28:13.906Z,17.51
2019-04-27T05:30:45.460Z,17.61
2019-04-27T05:33:18.491Z,17.67
2019-04-27T05:35:50.298Z,17.74
2019-04-27T05:38:21.546Z,17.79
2019-04-27T05:40:54.257Z,17.90
2019-04-27T05:43:31.767Z,18.00
2019-04-27T05:46:35.552Z,18.09
2019-04-27T05:49:09.368Z,18.19
2019-04-27T05:51:41.876Z,18.24
2019-04-27T05:54:12.536Z,18.14
2019-04-27T05:56:44.294Z,18.31
2019-04-27T05:59:15.952Z,18.38
2019-04-27T06:01:49.328Z,18.50
2019-04-27T06:04:20.708Z,18.55
2019-04-27T06:06:52.463Z,18.57
2019-04-27T06:09:24.029Z,18.64
2019-04-27T06:11:55.761Z,18.76
2019-04-27T06:14:26.787Z,18.85
2019-04-27T06:16:59.657Z,18.97
2019-04-27T06:19:30.887Z,19.05
2019-04-27T06:22:02.484Z,19.16
2019-04-27T06:24:34.546Z,19.30
2019-04-27T06:27:06.102Z,19.39
2019-04-27T06:29:39.330Z,19.40
2019-04-27T06:32:10.886Z,19.48
2019-04-27T06:34:42.397Z,19.54
2019-04-27T06:37:13.594Z,19.61
2019-04-27T06:39:45.190Z,19.69
2019-04-27T06:42:18.713Z,19.86
2019-04-27T06:44:49.519Z,19.94
2019-04-27T06:47:20.977Z,20.04
2019-04-27T06:49:52.219Z,20.12
2019-04-27T06:52:23.473Z,20.18
2019-04-27T06:54:54.966Z,20.19
2019-04-27T06:57:26.576Z,20.28
2019-04-27T06:59:59.136Z,20.43
2019-04-27T07:02:30.580Z,20.53
2019-04-27T07:05:02.257Z,20.48
2019-04-27T07:07:33.909Z,20.68
2019-04-27T07:10:06.493Z,20.79
2019-04-27T07:12:40.716Z,20.90
2019-04-27T07:15:10.508Z,20.89
2019-04-27T07:17:41.965Z,20.98
2019-04-27T07:20:13.399Z,20.99
2019-04-27T07:22:45.022Z,20.92
2019-04-27T07:25:16.661Z,20.99
2019-04-27T07:27:49.358Z,21.04
2019-04-27T07:30:20.748Z,21.12
2019-04-27T07:32:52.096Z,21.23
2019-04-27T07:35:24.376Z,21.31
2019-04-27T07:37:56.356Z,21.31
2019-04-27T07:40:28.916Z,21.30
2019-04-27T07:43:03.258Z,21.45
2019-04-27T07:45:39.574Z,21.52
2019-04-27T07:48:10.931Z,21.62
2019-04-27T07:50:42.076Z,21.72
2019-04-27T07:53:13.320Z,21.92
2019-04-27T07:55:44.470Z,22.04
2019-04-27T07:58:15.611Z,22.11
2019-04-27T08:00:47.259Z,22.31
2019-04-27T08:03:19.535Z,22.52
2019-04-27T08:05:50.873Z,22.50
2019-04-27T08:08:22.304Z,22.54
2019-04-27T08:10:53.884Z,22.54
2019-04-27T08:13:25.435Z,22.60
2019-04-27T08:15:56.788Z,22.63
2019-04-27T08:18:29.863Z,22.56
2019-04-27T08:21:02.749Z,22.64
2019-04-27T08:23:34.261Z,22.67
2019-04-27T08:26:08.775Z,22.61
2019-04-27T08:28:54.031Z,22.53
2019-04-27T08:31:28.679Z,22.63
2019-04-27T08:34:00.100Z,22.54
2019-04-27T08:36:31.321Z,22.43
2019-04-27T08:39:03.264Z,22.28
2019-04-27T08:41:35.769Z,22.32
2019-04-27T08:44:07.206Z,22.32
2019-04-27T08:46:38.630Z,22.23
2019-04-27T08:49:10.193Z,22.34
2019-04-27T08:51:41.760Z,22.57
2019-04-27T08:54:13.210Z,22.69
2019-04-27T08:56:44.658Z,22.71
2019-04-27T08:59:15.709Z,22.87
2019-04-27T09:01:49.188Z,23.04
2019-04-27T09:04:20.235Z,23.15
2019-04-27T09:06:52.983Z,23.28
2019-04-27T09:09:34.876Z,23.31
2019-04-27T09:12:24.254Z,23.30
2019-04-27T09:15:06.592Z,23.30
2019-04-27T09:17:39.776Z,23.44
2019-04-27T09:20:12.575Z,23.79
2019-04-27T09:22:43.834Z,23.87
2019-04-27T09:25:15.256Z,24.01
2019-04-27T09:27:46.811Z,24.02
2019-04-27T09:30:19.085Z,24.16
2019-04-27T09:32:51.290Z,24.39
2019-04-27T09:35:22.904Z,24.47
2019-04-27T09:37:56.239Z,24.58
2019-04-27T09:40:27.116Z,24.72
2019-04-27T09:42:59.005Z,24.61
2019-04-27T09:45:30.448Z,24.77
2019-04-27T09:48:02.786Z,25.03
2019-04-27T09:50:36.061Z,24.95
2019-04-27T09:53:07.554Z,24.93
2019-04-27T09:55:39.109Z,25.03
2019-04-27T09:58:10.189Z,25.20
2019-04-27T10:00:41.699Z,25.12
2019-04-27T10:03:13.352Z,25.21
2019-04-27T10:05:45.969Z,25.34
2019-04-27T10:08:18.214Z,25.41
2019-04-27T10:10:49.756Z,25.41
2019-04-27T10:13:21.916Z,25.38
2019-04-27T10:15:53.163Z,25.27
2019-04-27T10:18:26.456Z,25.16
2019-04-27T10:21:01.918Z,25.21
2019-04-27T10:23:30.831Z,24.79
2019-04-27T10:26:01.932Z,24.71
2019-04-27T10:28:33.065Z,24.55
2019-04-27T10:31:04.327Z,24.42
2019-04-27T10:33:35.946Z,24.76
2019-04-27T10:36:07.223Z,25.10
2019-04-27T10:38:38.678Z,25.22
2019-04-27T10:41:10.224Z,24.93
2019-04-27T10:43:41.886Z,24.69
2019-04-27T10:46:13.559Z,24.43
2019-04-27T10:48:45.693Z,24.46
2019-04-27T10:51:17.252Z,24.36
2019-04-27T10:53:48.707Z,24.80
2019-04-27T10:56:20.255Z,25.58
2019-04-27T10:58:51.808Z,26.54
2019-04-27T11:01:23.459Z,27.00
2019-04-27T11:04:02.344Z,27.50
2019-04-27T11:06:38.455Z,28.09
2019-04-27T11:09:10.970Z,28.65
2019-04-27T11:11:42.064Z,28.98
2019-04-27T11:14:13.714Z,29.09
2019-04-27T11:16:45.914Z,29.51
2019-04-27T11:19:17.112Z,29.77
2019-04-27T11:21:48.743Z,29.94
2019-04-27T11:24:20.133Z,30.25
2019-04-27T11:26:51.381Z,30.16
2019-04-27T11:29:22.619Z,30.37
2019-04-27T11:31:55.536Z,30.48
2019-04-27T11:34:28.308Z,30.27
2019-04-27T11:37:01.375Z,30.26
2019-04-27T11:39:32.728Z,29.98
2019-04-27T11:42:04.380Z,30.41
2019-04-27T11:44:36.018Z,30.67
2019-04-27T11:47:07.691Z,30.74
2019-04-27T11:49:39.982Z,31.04
2019-04-27T11:52:11.618Z,31.17
2019-04-27T11:54:42.716Z,31.36
2019-04-27T11:57:14.304Z,30.94
2019-04-27T11:59:45.859Z,30.64
2019-04-27T12:02:17.586Z,30.54
2019-04-27T12:04:49.276Z,30.71
2019-04-27T12:07:20.622Z,31.09
2019-04-27T12:09:52.177Z,31.19
2019-04-27T12:12:26.112Z,31.41
2019-04-27T12:14:57.327Z,31.51
2019-04-27T12:17:29.265Z,31.61
2019-04-27T12:20:00.631Z,31.25
2019-04-27T12:22:32.286Z,31.11
2019-04-27T12:25:06.378Z,30.43
2019-04-27T12:27:45.804Z,29.96
2019-04-27T12:30:21.387Z,30.16
2019-04-27T12:32:52.629Z,30.15
2019-04-27T12:35:25.653Z,29.77
2019-04-27T12:37:57.062Z,29.72
2019-04-27T12:40:28.309Z,30.56
2019-04-27T12:42:59.761Z,31.39
2019-04-27T12:45:30.791Z,31.94
2019-04-27T12:48:02.415Z,32.41
2019-04-27T12:50:33.910Z,32.49
2019-04-27T12:53:07.908Z,32.27
2019-04-27T12:55:40.629Z,32.26
2019-04-27T12:58:19.890Z,32.72
2019-04-27T13:00:59.062Z,33.10
2019-04-27T13:03:33.473Z,33.32
2019-04-27T13:06:04.940Z,33.32
2019-04-27T13:08:37.607Z,33.44
2019-04-27T13:11:08.853Z,33.77
2019-04-27T13:13:40.517Z,33.91
2019-04-27T13:16:11.757Z,33.79
2019-04-27T13:18:43.070Z,32.82
2019-04-27T13:21:15.703Z,32.24
2019-04-27T13:24:00.916Z,31.40
2019-04-27T13:26:21.751Z,31.36
2019-04-27T13:28:53.312Z,30.83
2019-04-27T13:31:25.768Z,30.80
2019-04-27T13:33:56.975Z,31.30
2019-04-27T13:36:28.594Z,32.00
2019-04-27T13:39:00.236Z,32.22
2019-04-27T13:41:33.032Z,32.79
2019-04-27T13:44:06.423Z,33.28
2019-04-27T13:46:56.012Z,33.64
2019-04-27T13:49:47.715Z,33.67
2019-04-27T13:52:20.794Z,32.72
2019-04-27T13:54:52.355Z,32.80
2019-04-27T13:57:23.800Z,32.84
2019-04-27T13:59:55.355Z,32.71
2019-04-27T14:02:32.305Z,32.08
2019-04-27T14:05:00.100Z,31.67
2019-04-27T14:07:31.222Z,31.84
2019-04-27T14:10:02.787Z,32.17
2019-04-27T14:12:34.150Z,32.27
2019-04-27T14:15:05.687Z,32.00
2019-04-27T14:17:36.982Z,31.44
2019-04-27T14:20:09.731Z,31.26
2019-04-27T14:22:41.469Z,30.50
2019-04-27T14:25:12.822Z,30.58
2019-04-27T14:27:44.490Z,30.64
2019-04-27T14:30:17.331Z,30.30
2019-04-27T14:32:48.471Z,30.23
2019-04-27T14:35:19.848Z,30.26
2019-04-27T14:37:51.133Z,30.62
2019-04-27T14:40:22.748Z,30.79
2019-04-27T14:42:54.214Z,31.00
2019-04-27T14:45:26.301Z,30.71
2019-04-27T14:47:58.199Z,30.31
2019-04-27T14:50:30.392Z,30.27
2019-04-27T14:53:01.943Z,30.31
2019-04-27T14:55:33.292Z,30.28
2019-04-27T14:58:04.438Z,30.31
2019-04-27T15:00:35.887Z,30.59
2019-04-27T15:03:07.231Z,30.62
2019-04-27T15:05:38.887Z,30.28
2019-04-27T15:08:10.999Z,29.98
2019-04-27T15:10:42.298Z,29.84
2019-04-27T15:13:13.340Z,29.77
2019-04-27T15:15:45.205Z,29.94
2019-04-27T15:18:16.239Z,29.83
2019-04-27T15:20:48.099Z,29.81
2019-04-27T15:23:20.139Z,29.89
2019-04-27T15:25:51.514Z,29.66
2019-04-27T15:28:24.684Z,29.41
2019-04-27T15:31:00.965Z,28.76
2019-04-27T15:33:53.367Z,27.86
2019-04-27T15:36:30.845Z,26.93
2019-04-27T15:39:07.865Z,26.62
2019-04-27T15:42:03.389Z,26.91
2019-04-27T15:44:36.455Z,27.09
2019-04-27T15:47:10.333Z,26.97
2019-04-27T15:49:45.059Z,27.01
2019-04-27T15:52:12.264Z,26.82
2019-04-27T15:54:44.534Z,26.33
2019-04-27T15:57:18.609Z,25.68
2019-04-27T15:59:48.968Z,25.07
2019-04-27T16:02:20.552Z,24.54
2019-04-27T16:04:53.536Z,24.08
2019-04-27T16:07:29.888Z,23.70
2019-04-27T16:10:00.207Z,23.40
2019-04-27T16:12:31.135Z,23.06
2019-04-27T16:15:05.039Z,22.77
2019-04-27T16:17:35.585Z,22.55
2019-04-27T16:20:07.305Z,22.36
2019-04-27T16:22:39.074Z,22.17
2019-04-27T16:25:12.251Z,22.00
2019-04-27T16:27:43.933Z,21.86
2019-04-27T16:30:18.044Z,21.69
2019-04-27T16:32:48.260Z,21.53
2019-04-27T16:35:22.945Z,21.35
2019-04-27T16:38:00.278Z,21.19
2019-04-27T16:40:31.929Z,21.07
2019-04-27T16:43:03.384Z,20.90
2019-04-27T16:45:38.792Z,20.78
2019-04-27T16:48:10.379Z,20.64
2019-04-27T16:50:41.619Z,20.53
2019-04-27T16:53:14.189Z,20.42
2019-04-27T16:55:45.345Z,20.32
2019-04-27T16:58:20.553Z,20.21
2019-04-27T17:00:49.988Z,20.09
2019-04-27T17:03:21.302Z,19.95
2019-04-27T17:05:52.883Z,19.77
2019-04-27T17:08:26.843Z,19.62
2019-04-27T17:11:07.829Z,19.48
2019-04-27T17:13:33.280Z,19.42
2019-04-27T17:16:31.059Z,19.34
2019-04-27T17:19:04.920Z,19.25
2019-04-27T17:21:38.686Z,19.13
2019-04-27T17:24:09.916Z,18.98
2019-04-27T17:26:43.446Z,18.87
2019-04-27T17:29:20.496Z,18.82
2019-04-27T17:31:55.132Z,18.80
2019-04-27T17:34:26.412Z,18.82
2019-04-27T17:36:59.074Z,18.72
2019-04-27T17:39:30.679Z,18.88
2019-04-27T17:42:01.942Z,18.93
2019-04-27T17:44:33.549Z,18.95
2019-04-27T17:47:05.134Z,18.96
2019-04-27T17:49:38.177Z,18.95
2019-04-27T17:52:13.043Z,18.91
2019-04-27T17:54:47.323Z,18.84
2019-04-27T17:57:17.892Z,18.82
2019-04-27T17:59:51.417Z,18.82
2019-04-27T18:02:21.933Z,18.79
2019-04-27T18:04:54.109Z,18.78
2019-04-27T18:07:25.540Z,18.70
2019-04-27T18:09:58.387Z,18.56
2019-04-27T18:12:29.673Z,18.49
2019-04-27T18:15:01.117Z,18.43
2019-04-27T18:17:33.265Z,18.36
2019-04-27T18:20:09.349Z,18.22
2019-04-27T18:22:45.349Z,18.16
2019-04-27T18:25:18.669Z,18.17
2019-04-27T18:28:01.000Z,18.19
2019-04-27T18:30:38.636Z,18.18
2019-04-27T18:33:08.767Z,18.16
2019-04-27T18:35:40.373Z,18.26
2019-04-27T18:38:11.640Z,18.36
2019-04-27T18:40:42.758Z,18.43
2019-04-27T18:43:14.561Z,18.47
2019-04-27T18:45:46.023Z,18.49
2019-04-27T18:48:18.827Z,18.45
2019-04-27T18:50:57.158Z,18.45
2019-04-27T18:53:30.450Z,18.35
2019-04-27T18:56:05.306Z,18.27
2019-04-27T18:58:35.714Z,18.19
2019-04-27T19:01:08.605Z,18.12
2019-04-27T19:03:40.146Z,18.03
2019-04-27T19:06:12.205Z,18.03
2019-04-27T19:08:43.458Z,18.09
2019-04-27T19:11:15.109Z,18.13
2019-04-27T19:13:48.729Z,18.18
2019-04-27T19:16:22.212Z,18.22
2019-04-27T19:18:52.526Z,18.20
2019-04-27T19:21:24.079Z,18.17
2019-04-27T19:23:55.226Z,18.19
2019-04-27T19:26:28.943Z,18.28
2019-04-27T19:29:01.895Z,18.41
2019-04-27T19:31:35.001Z,18.48
2019-04-27T19:34:06.654Z,18.52
2019-04-27T19:36:38.650Z,18.48
2019-04-27T19:39:13.898Z,18.40
2019-04-27T19:41:59.958Z,18.40
2019-04-27T19:44:19.624Z,18.31
2019-04-27T19:46:50.727Z,18.27
2019-04-27T19:49:21.911Z,18.30
2019-04-27T19:51:53.263Z,18.34
2019-04-27T19:54:24.509Z,18.38
2019-04-27T19:56:56.154Z,18.41
2019-04-27T19:59:32.236Z,18.42
2019-04-27T20:02:05.512Z,18.48
2019-04-27T20:04:38.290Z,18.47
2019-04-27T20:07:10.588Z,18.52
2019-04-27T20:09:43.544Z,18.55
2019-04-27T20:12:14.823Z,18.57
2019-04-27T20:14:58.641Z,18.61
2019-04-27T20:17:31.299Z,18.66
2019-04-27T20:20:04.293Z,18.63
2019-04-27T20:22:35.646Z,18.65
2019-04-27T20:25:07.277Z,18.61
2019-04-27T20:27:48.741Z,18.62
2019-04-27T20:30:13.265Z,18.60
2019-04-27T20:32:45.829Z,18.58
2019-04-27T20:35:17.501Z,18.50
2019-04-27T20:37:49.162Z,18.38
2019-04-27T20:40:21.784Z,18.30
2019-04-27T20:42:53.387Z,18.24
2019-04-27T20:45:24.928Z,18.22
2019-04-27T20:47:56.594Z,18.16
2019-04-27T20:50:27.943Z,18.13
2019-04-27T20:53:01.136Z,18.16
2019-04-27T20:55:32.478Z,18.15
2019-04-27T20:58:04.131Z,18.13
2019-04-27T21:00:36.150Z,18.10
2019-04-27T21:03:14.486Z,18.02
2019-04-27T21:05:51.140Z,18.02
2019-04-27T21:08:24.166Z,17.96
2019-04-27T21:10:55.622Z,17.94
2019-04-27T21:13:26.799Z,17.92
2019-04-27T21:15:58.298Z,17.93
2019-04-27T21:18:31.702Z,17.91
2019-04-27T21:21:03.164Z,17.92
2019-04-27T21:23:34.567Z,17.93
2019-04-27T21:26:06.165Z,17.89
2019-04-27T21:28:37.611Z,17.90
2019-04-27T21:31:08.841Z,17.88
2019-04-27T21:33:40.951Z,17.88
2019-04-27T21:36:12.577Z,17.85
2019-04-27T21:38:43.806Z,17.87
2019-04-27T21:41:15.272Z,17.83
2019-04-27T21:43:46.718Z,17.83
2019-04-27T21:46:18.180Z,17.84
2019-04-27T21:48:50.749Z,17.86
2019-04-27T21:51:22.103Z,17.86
2019-04-27T21:54:13.031Z,17.87
2019-04-27T21:56:44.556Z,17.90
2019-04-27T21:59:16.005Z,17.96
2019-04-27T22:01:48.231Z,17.99
2019-04-27T22:04:19.735Z,18.01
2019-04-27T22:06:51.404Z,18.01
2019-04-27T22:09:23.137Z,18.02
2019-04-27T22:11:54.492Z,18.06
2019-04-27T22:14:26.242Z,18.04
2019-04-27T22:16:57.527Z,18.02
2019-04-27T22:19:30.917Z,18.05
2019-04-27T22:22:03.517Z,18.04
2019-04-27T22:24:42.819Z,18.01
2019-04-27T22:27:12.711Z,18.01
2019-04-27T22:29:44.371Z,17.99
2019-04-27T22:32:15.464Z,17.99
2019-04-27T22:34:47.257Z,17.94
2019-04-27T22:37:18.508Z,17.94
2019-04-27T22:39:54.264Z,17.89
2019-04-27T22:42:43.529Z,17.87
2019-04-27T22:45:16.717Z,17.82
2019-04-27T22:47:48.299Z,17.78
2019-04-27T22:50:21.080Z,17.76
2019-04-27T22:52:52.279Z,17.75
2019-04-27T22:55:23.642Z,17.72
2019-04-27T22:57:56.867Z,17.74
2019-04-27T23:00:31.039Z,17.77
2019-04-27T23:03:03.947Z,17.79
2019-04-27T23:05:35.583Z,17.76
2019-04-27T23:08:07.036Z,17.76
2019-04-27T23:10:38.484Z,17.72
2019-04-27T23:13:11.236Z,17.71
2019-04-27T23:15:44.063Z,17.67
2019-04-27T23:18:15.804Z,17.61
2019-04-27T23:20:47.459Z,17.59
2019-04-27T23:23:18.966Z,17.55
2019-04-27T23:25:51.321Z,17.51
2019-04-27T23:28:22.633Z,17.51
2019-04-27T23:31:02.498Z,17.47
2019-04-27T23:33:33.932Z,17.44
2019-04-27T23:36:05.547Z,17.44
2019-04-27T23:38:37.055Z,17.44
2019-04-27T23:41:08.630Z,17.44
2019-04-27T23:43:40.136Z,17.43
2019-04-27T23:46:11.864Z,17.39
2019-04-27T23:48:43.383Z,17.36
2019-04-27T23:51:22.371Z,17.30
2019-04-27T23:53:53.929Z,17.24
2019-04-27T23:56:25.382Z,17.22
2019-04-27T23:58:57.027Z,17.17
